createdAt,value
2022-09-17T00:00:31.767Z,9.13
2022-09-17T00:03:02.597Z,11.75
2022-09-17T00:05:33.667Z,11.15
2022-09-17T00:08:05.118Z,9.95
2022-09-17T00:10:40.675Z,10.05
2022-09-17T00:13:12.608Z,9.90
2022-09-17T00:15:49.186Z,10.20
2022-09-17T00:18:20.345Z,9.15
2022-09-17T00:20:51.167Z,15.52
2022-09-17T00:23:21.980Z,16.15
2022-09-17T00:25:52.892Z,13.63
2022-09-17T00:28:23.633Z,9.55
2022-09-17T00:30:54.725Z,9.90
2022-09-17T00:33:25.626Z,12.52
2022-09-17T00:36:04.267Z,12.23
2022-09-17T00:38:35.711Z,12.40
2022-09-17T00:41:07.900Z,10.05
2022-09-17T00:43:42.644Z,10.57
2022-09-17T00:46:36.155Z,14.75
2022-09-17T00:49:14.218Z,11.32
2022-09-17T00:52:02.579Z,8.80
2022-09-17T00:54:35.243Z,12.30
2022-09-17T00:57:06.888Z,12.18
2022-09-17T00:59:38.251Z,11.95
2022-09-17T01:02:09.411Z,12.38
2022-09-17T01:04:40.355Z,9.02
2022-09-17T01:07:32.162Z,11.38
2022-09-17T01:10:11.353Z,9.23
2022-09-17T01:12:41.968Z,9.10
2022-09-17T01:15:25.303Z,11.25
2022-09-17T01:18:25.225Z,8.73
2022-09-17T01:21:01.537Z,9.20
2022-09-17T01:23:50.841Z,10.68
2022-09-17T01:26:38.172Z,7.97
2022-09-17T01:29:45.489Z,10.10
2022-09-17T01:32:29.429Z,7.88
2022-09-17T01:35:39.295Z,9.82
2022-09-17T01:38:27.123Z,10.13
2022-09-17T01:41:22.328Z,13.10
2022-09-17T01:44:05.145Z,11.30
2022-09-17T01:46:42.185Z,9.40
2022-09-17T01:49:15.861Z,7.32
2022-09-17T01:51:52.094Z,10.40
2022-09-17T01:54:31.417Z,7.68
2022-09-17T01:57:14.652Z,11.77
2022-09-17T02:00:03.895Z,10.85
2022-09-17T02:02:45.210Z,12.15
2022-09-17T02:05:20.004Z,9.20
2022-09-17T02:08:02.177Z,8.30
2022-09-17T02:10:38.292Z,12.60
2022-09-17T02:13:22.427Z,13.90
2022-09-17T02:16:04.840Z,11.30
2022-09-17T02:18:58.882Z,7.85
2022-09-17T02:21:42.724Z,11.75
2022-09-17T02:24:37.857Z,10.38
2022-09-17T02:28:05.329Z,10.63
2022-09-17T02:30:36.266Z,10.65
2022-09-17T02:33:11.403Z,11.25
2022-09-17T02:35:42.408Z,8.73
2022-09-17T02:38:14.241Z,11.48
2022-09-17T02:40:53.180Z,7.47
2022-09-17T02:43:54.658Z,11.32
2022-09-17T02:46:57.928Z,12.15
2022-09-17T02:49:56.740Z,7.07
2022-09-17T02:52:44.916Z,10.52
2022-09-17T02:55:28.971Z,12.13
2022-09-17T02:58:19.761Z,9.45
2022-09-17T03:00:51.943Z,11.93
2022-09-17T03:03:34.364Z,9.43
2022-09-17T03:06:05.620Z,7.60
2022-09-17T03:11:12.036Z,9.98
2022-09-17T03:13:43.305Z,14.63
2022-09-17T03:18:45.647Z,10.00
2022-09-17T03:21:17.075Z,11.40
2022-09-17T03:23:50.039Z,14.00
2022-09-17T03:26:20.972Z,9.77
2022-09-17T03:28:51.761Z,11.73
2022-09-17T03:31:22.582Z,10.23
2022-09-17T03:33:53.652Z,9.60
2022-09-17T03:36:24.541Z,7.03
2022-09-17T03:39:00.236Z,6.70
2022-09-17T03:41:31.229Z,7.15
2022-09-17T03:44:02.225Z,9.95
2022-09-17T03:46:33.593Z,6.55
2022-09-17T03:49:04.537Z,7.28
2022-09-17T03:51:35.902Z,7.75
2022-09-17T03:54:07.111Z,7.20
2022-09-17T03:56:37.982Z,7.95
2022-09-17T03:59:08.881Z,5.97
2022-09-17T04:01:39.849Z,7.18
2022-09-17T04:06:41.531Z,6.13
2022-09-17T04:09:12.670Z,8.38
2022-09-17T04:11:43.552Z,5.60
2022-09-17T04:14:14.640Z,6.88
2022-09-17T04:16:45.658Z,4.88
2022-09-17T04:21:47.191Z,5.78
2022-09-17T04:24:18.175Z,9.90
2022-09-17T04:26:48.963Z,7.20
2022-09-17T04:29:19.669Z,7.40
2022-09-17T04:31:50.370Z,6.13
2022-09-17T04:34:21.267Z,4.45
2022-09-17T04:36:51.985Z,6.72
2022-09-17T04:39:23.035Z,5.45
2022-09-17T04:41:53.905Z,6.43
2022-09-17T04:44:25.487Z,7.32
2022-09-17T04:46:56.430Z,7.00
2022-09-17T04:49:27.529Z,7.38
2022-09-17T04:51:58.845Z,8.10
2022-09-17T04:54:29.694Z,5.45
2022-09-17T04:57:00.834Z,7.90
2022-09-17T04:59:31.771Z,6.43
2022-09-17T05:03:17.930Z,8.50
2022-09-17T05:05:48.726Z,6.28
2022-09-17T05:08:19.378Z,10.67
2022-09-17T05:10:50.095Z,7.57
2022-09-17T05:13:21.733Z,4.03
2022-09-17T05:15:52.555Z,4.85
2022-09-17T05:18:23.650Z,6.68
2022-09-17T05:20:55.834Z,5.65
2022-09-17T05:23:26.773Z,6.55
2022-09-17T05:26:02.939Z,16.60
2022-09-17T05:28:33.896Z,8.52
2022-09-17T05:31:06.235Z,8.00
2022-09-17T05:33:37.678Z,12.32
2022-09-17T05:38:39.109Z,7.82
2022-09-17T05:41:10.508Z,7.80
2022-09-17T05:43:41.452Z,6.53
2022-09-17T05:46:12.402Z,4.20
2022-09-17T05:48:43.341Z,5.32
2022-09-17T05:51:14.493Z,5.13
2022-09-17T05:53:45.436Z,3.10
2022-09-17T05:56:16.363Z,6.60
2022-09-17T05:58:47.355Z,5.95
2022-09-17T06:01:18.940Z,6.75
2022-09-17T06:03:49.872Z,3.75
2022-09-17T06:06:22.069Z,5.83
2022-09-17T06:08:52.920Z,4.40
2022-09-17T06:11:25.170Z,5.75
2022-09-17T06:13:58.025Z,3.83
2022-09-17T06:16:28.920Z,5.35
2022-09-17T06:18:59.958Z,6.88
2022-09-17T06:21:32.374Z,3.03
2022-09-17T06:24:04.304Z,5.03
2022-09-17T06:26:35.439Z,2.80
2022-09-17T06:29:06.541Z,4.30
2022-09-17T06:31:37.648Z,5.22
2022-09-17T06:36:40.530Z,5.03
2022-09-17T06:41:44.943Z,6.33
2022-09-17T06:44:15.974Z,3.10
2022-09-17T06:46:46.928Z,5.10
2022-09-17T06:49:20.349Z,7.13
2022-09-17T06:51:51.223Z,6.03
2022-09-17T06:54:22.248Z,6.25
2022-09-17T06:56:53.203Z,7.05
2022-09-17T06:59:24.334Z,5.13
2022-09-17T07:01:55.455Z,5.50
2022-09-17T07:04:26.259Z,6.97
2022-09-17T07:06:58.823Z,10.30
2022-09-17T07:09:29.531Z,7.65
2022-09-17T07:12:00.563Z,10.18
2022-09-17T07:14:31.489Z,10.00
2022-09-17T07:17:02.716Z,7.03
2022-09-17T07:19:33.406Z,7.55
2022-09-17T07:22:04.294Z,7.65
2022-09-17T07:24:35.975Z,8.68
2022-09-17T07:27:07.286Z,7.82
2022-09-17T07:29:38.273Z,8.35
2022-09-17T07:32:09.365Z,5.20
2022-09-17T07:34:40.487Z,8.93
2022-09-17T07:39:43.901Z,10.57
2022-09-17T07:42:15.151Z,7.50
2022-09-17T07:47:16.825Z,6.65
2022-09-17T07:52:18.143Z,6.55
2022-09-17T07:54:49.026Z,8.43
2022-09-17T07:57:19.784Z,8.32
2022-09-17T07:59:50.696Z,6.18
2022-09-17T08:02:24.169Z,9.87
2022-09-17T08:04:55.916Z,9.18
2022-09-17T08:07:27.082Z,7.43
2022-09-17T08:09:58.381Z,9.75
2022-09-17T08:12:29.850Z,7.10
2022-09-17T08:17:31.171Z,7.10
2022-09-17T08:20:02.039Z,7.00
2022-09-17T08:22:34.379Z,5.40
2022-09-17T08:25:08.139Z,8.80
2022-09-17T08:27:41.695Z,7.43
2022-09-17T08:30:12.736Z,7.43
2022-09-17T08:32:43.532Z,7.50
2022-09-17T08:35:14.627Z,9.40
2022-09-17T08:40:25.750Z,9.13
2022-09-17T08:43:05.031Z,6.55
2022-09-17T08:45:36.277Z,8.82
2022-09-17T08:48:08.032Z,8.07
2022-09-17T08:50:44.625Z,8.00
2022-09-17T08:53:39.246Z,5.50
2022-09-17T08:56:16.169Z,5.82
2022-09-17T08:59:52.634Z,6.40
2022-09-17T09:02:47.930Z,6.07
2022-09-17T09:05:28.487Z,6.10
2022-09-17T09:08:15.405Z,8.60
2022-09-17T09:10:55.707Z,7.93
2022-09-17T09:13:31.263Z,7.15
2022-09-17T09:16:15.628Z,7.85
2022-09-17T09:18:46.788Z,7.97
2022-09-17T09:21:37.359Z,9.38
2022-09-17T09:24:20.417Z,9.02
2022-09-17T09:27:04.272Z,6.35
2022-09-17T09:29:49.153Z,5.40
2022-09-17T09:32:34.831Z,7.20
2022-09-17T09:35:19.098Z,5.13
2022-09-17T09:37:57.464Z,5.88
2022-09-17T09:40:37.201Z,10.15
2022-09-17T09:43:22.729Z,5.47
2022-09-17T09:46:13.564Z,7.55
2022-09-17T09:49:08.722Z,8.02
2022-09-17T09:52:00.911Z,5.88
2022-09-17T09:55:00.278Z,5.65
2022-09-17T09:57:50.901Z,6.38
2022-09-17T10:00:32.886Z,5.53
2022-09-17T10:03:13.633Z,8.52
2022-09-17T10:06:04.478Z,5.37
2022-09-17T10:08:43.818Z,7.30
2022-09-17T10:11:14.610Z,9.38
2022-09-17T10:13:46.055Z,6.63
2022-09-17T10:18:54.399Z,9.23
2022-09-17T10:21:39.752Z,8.98
2022-09-17T10:24:34.808Z,8.27
2022-09-17T10:27:10.605Z,8.23
2022-09-17T10:29:47.540Z,8.82
2022-09-17T10:32:24.017Z,9.68
2022-09-17T10:35:02.605Z,7.75
2022-09-17T10:37:44.609Z,9.25
2022-09-17T10:40:21.647Z,6.50
2022-09-17T10:43:13.713Z,4.85
2022-09-17T10:45:49.657Z,6.45
2022-09-17T10:48:24.344Z,5.68
2022-09-17T10:51:02.042Z,7.05
2022-09-17T10:53:33.224Z,8.27
2022-09-17T10:56:32.674Z,9.13
2022-09-17T10:59:25.160Z,9.10
2022-09-17T11:02:26.168Z,7.70
2022-09-17T11:05:09.017Z,7.03
2022-09-17T11:08:06.511Z,7.57
2022-09-17T11:10:48.467Z,6.47
2022-09-17T11:13:51.605Z,6.18
2022-09-17T11:16:54.715Z,6.43
2022-09-17T11:20:02.099Z,7.47
2022-09-17T11:22:50.984Z,9.60
2022-09-17T11:25:40.238Z,11.02
2022-09-17T11:28:39.160Z,9.32
2022-09-17T11:31:17.497Z,7.68
2022-09-17T11:33:55.992Z,7.85
2022-09-17T11:37:03.487Z,8.15
2022-09-17T11:39:57.801Z,9.20
2022-09-17T11:42:46.732Z,7.88
2022-09-17T11:45:24.960Z,10.80
2022-09-17T11:48:21.769Z,6.22
2022-09-17T11:51:26.462Z,7.95
2022-09-17T11:54:18.732Z,10.82
2022-09-17T11:56:53.947Z,7.95
2022-09-17T11:59:42.687Z,8.77
2022-09-17T12:02:29.041Z,9.88
2022-09-17T12:05:10.697Z,9.05
2022-09-17T12:07:47.382Z,7.55
2022-09-17T12:10:48.268Z,12.27
2022-09-17T12:13:27.126Z,13.00
2022-09-17T12:16:13.992Z,9.23
2022-09-17T12:18:56.712Z,9.02
2022-09-17T12:21:39.340Z,10.20
2022-09-17T12:24:25.860Z,8.75
2022-09-17T12:27:17.797Z,7.93
2022-09-17T12:30:06.600Z,9.93
2022-09-17T12:32:59.638Z,12.60
2022-09-17T12:36:04.469Z,11.98
2022-09-17T12:39:00.638Z,11.23
2022-09-17T12:41:36.126Z,10.98
2022-09-17T12:44:24.843Z,8.13
2022-09-17T12:47:13.692Z,7.80
2022-09-17T12:50:28.185Z,7.82
2022-09-17T12:53:26.249Z,7.80
2022-09-17T12:56:24.017Z,19.42
2022-09-17T12:59:15.743Z,10.15
2022-09-17T13:01:59.325Z,9.23
2022-09-17T13:05:00.960Z,9.05
2022-09-17T13:07:55.598Z,13.52
2022-09-17T13:10:39.839Z,10.95
2022-09-17T13:13:40.796Z,7.47
2022-09-17T13:16:46.074Z,9.27
2022-09-17T13:20:01.712Z,6.57
2022-09-17T13:22:46.834Z,6.00
2022-09-17T13:25:23.123Z,5.53
2022-09-17T13:28:07.439Z,9.55
2022-09-17T13:31:04.308Z,4.90
2022-09-17T13:33:55.209Z,3.97
2022-09-17T13:36:44.718Z,3.53
2022-09-17T13:39:42.819Z,3.45
2022-09-17T13:42:19.244Z,3.83
2022-09-17T13:45:21.645Z,5.03
2022-09-17T13:48:18.054Z,4.00
2022-09-17T13:50:49.239Z,4.43
2022-09-17T13:53:24.186Z,6.32
2022-09-17T13:55:58.053Z,6.97
2022-09-17T13:58:35.866Z,4.38
2022-09-17T14:01:17.499Z,7.20
2022-09-17T14:03:49.167Z,4.95
2022-09-17T14:06:24.982Z,9.93
2022-09-17T14:09:00.937Z,6.20
2022-09-17T14:11:32.217Z,4.28
2022-09-17T14:16:46.264Z,5.90
2022-09-17T14:19:59.022Z,6.50
2022-09-17T14:22:30.837Z,6.60
2022-09-17T14:25:02.178Z,5.53
2022-09-17T14:28:01.257Z,8.82
2022-09-17T14:30:37.371Z,8.35
2022-09-17T14:33:22.997Z,7.93
2022-09-17T14:36:00.326Z,13.18
2022-09-17T14:38:37.315Z,7.07
2022-09-17T14:41:23.890Z,6.57
2022-09-17T14:43:57.441Z,6.05
2022-09-17T14:46:40.117Z,3.92
2022-09-17T14:49:31.000Z,4.32
2022-09-17T14:52:04.636Z,5.83
2022-09-17T14:54:36.677Z,5.38
2022-09-17T14:57:15.026Z,4.32
2022-09-17T15:00:02.611Z,5.43
2022-09-17T15:02:40.730Z,4.97
2022-09-17T15:05:35.710Z,4.00
2022-09-17T15:08:23.883Z,5.05
2022-09-17T15:11:21.119Z,4.97
2022-09-17T15:13:55.473Z,3.75
2022-09-17T15:16:33.350Z,6.13
2022-09-17T15:19:08.709Z,5.97
2022-09-17T15:21:46.284Z,5.40
2022-09-17T15:24:39.588Z,3.22
2022-09-17T15:27:35.951Z,5.75
2022-09-17T15:30:25.195Z,3.67
2022-09-17T15:33:03.414Z,5.28
2022-09-17T15:35:36.590Z,5.18
2022-09-17T15:38:24.357Z,5.88
2022-09-17T15:40:55.907Z,3.63
2022-09-17T15:43:33.772Z,6.35
2022-09-17T15:46:29.489Z,4.18
2022-09-17T15:49:07.208Z,3.90
2022-09-17T15:51:39.594Z,4.05
2022-09-17T15:54:30.389Z,5.53
2022-09-17T15:57:04.334Z,4.00
2022-09-17T15:59:38.102Z,3.65
2022-09-17T16:04:09.619Z,6.55
2022-09-17T16:06:40.940Z,5.53
2022-09-17T16:12:01.963Z,3.75
2022-09-17T16:14:32.845Z,4.35
2022-09-17T16:17:12.826Z,6.18
2022-09-17T16:19:44.728Z,8.07
2022-09-17T16:22:15.624Z,4.25
2022-09-17T16:24:46.349Z,3.40
2022-09-17T16:27:23.919Z,5.57
2022-09-17T16:29:58.029Z,8.93
2022-09-17T16:32:29.004Z,4.85
2022-09-17T16:35:00.072Z,6.05
2022-09-17T16:40:01.550Z,5.07
2022-09-17T16:45:07.316Z,5.88
2022-09-17T16:47:40.069Z,4.60
2022-09-17T16:50:16.679Z,7.88
2022-09-17T16:52:48.410Z,4.68
2022-09-17T16:55:20.970Z,3.80
2022-09-17T16:57:52.035Z,6.45
2022-09-17T17:00:23.915Z,3.60
2022-09-17T17:02:57.854Z,5.22
2022-09-17T17:05:30.494Z,5.45
2022-09-17T17:08:05.930Z,4.63
2022-09-17T17:10:37.966Z,4.35
2022-09-17T17:15:39.203Z,7.18
2022-09-17T17:18:10.154Z,4.18
2022-09-17T17:20:41.029Z,5.93
2022-09-17T17:23:11.726Z,4.50
2022-09-17T17:25:42.595Z,4.03
2022-09-17T17:28:13.749Z,5.30
2022-09-17T17:30:44.456Z,4.70
2022-09-17T17:33:15.219Z,5.53
2022-09-17T17:35:46.235Z,4.97
2022-09-17T17:38:17.174Z,8.63
2022-09-17T17:40:48.135Z,7.03
2022-09-17T17:43:19.281Z,4.15
2022-09-17T17:45:50.013Z,4.90
2022-09-17T17:48:20.648Z,8.07
2022-09-17T17:50:55.914Z,4.40
2022-09-17T17:53:27.684Z,4.72
2022-09-17T17:56:04.532Z,5.18
2022-09-17T17:58:35.878Z,7.57
2022-09-17T18:01:33.062Z,4.57
2022-09-17T18:04:07.911Z,6.47
2022-09-17T18:06:38.723Z,7.15
2022-09-17T18:09:09.957Z,6.28
2022-09-17T18:11:41.071Z,4.95
2022-09-17T18:14:15.327Z,4.90
2022-09-17T18:16:46.160Z,4.18
2022-09-17T18:19:17.203Z,4.88
2022-09-17T18:21:48.322Z,7.00
2022-09-17T18:26:49.562Z,8.32
2022-09-17T18:29:20.621Z,7.05
2022-09-17T18:31:51.437Z,5.82
2022-09-17T18:34:22.509Z,6.63
2022-09-17T18:36:53.357Z,5.88
2022-09-17T18:42:15.136Z,7.30
2022-09-17T18:44:46.244Z,7.43
2022-09-17T18:47:17.491Z,8.57
2022-09-17T18:52:18.876Z,6.65
2022-09-17T18:54:49.809Z,5.85
2022-09-17T18:57:20.748Z,7.00
2022-09-17T18:59:51.469Z,5.65
2022-09-17T19:02:22.544Z,8.10
2022-09-17T19:04:53.332Z,5.60
2022-09-17T19:07:24.285Z,4.50
2022-09-17T19:09:55.006Z,8.75
2022-09-17T19:12:25.599Z,7.53
2022-09-17T19:14:57.051Z,9.20
2022-09-17T19:19:58.001Z,6.65
2022-09-17T19:22:28.919Z,7.28
2022-09-17T19:24:59.775Z,8.75
2022-09-17T19:27:32.126Z,6.97
2022-09-17T19:30:03.335Z,8.48
2022-09-17T19:35:05.653Z,7.90
2022-09-17T19:37:36.648Z,8.60
2022-09-17T19:40:09.467Z,6.78
2022-09-17T19:42:40.833Z,7.05
2022-09-17T19:47:43.095Z,9.27
2022-09-17T19:50:14.198Z,6.78
2022-09-17T19:52:45.254Z,7.78
2022-09-17T19:55:16.252Z,6.72
2022-09-17T19:57:47.176Z,7.30
2022-09-17T20:00:18.742Z,7.93
2022-09-17T20:02:49.594Z,7.00
2022-09-17T20:05:20.573Z,7.93
2022-09-17T20:07:51.583Z,5.68
2022-09-17T20:10:22.486Z,8.35
2022-09-17T20:12:53.484Z,8.98
2022-09-17T20:15:24.431Z,4.68
2022-09-17T20:17:55.600Z,5.93
2022-09-17T20:20:30.924Z,8.63
2022-09-17T20:23:01.852Z,8.90
2022-09-17T20:25:32.436Z,8.13
2022-09-17T20:28:04.283Z,6.90
2022-09-17T20:30:34.923Z,6.20
2022-09-17T20:33:05.995Z,7.55
2022-09-17T20:35:38.772Z,7.38
2022-09-17T20:39:06.743Z,6.22
2022-09-17T20:41:12.836Z,5.00
2022-09-17T20:43:46.355Z,5.88
2022-09-17T20:46:17.701Z,7.97
2022-09-17T20:48:49.259Z,8.65
2022-09-17T20:51:22.507Z,4.70
2022-09-17T20:53:53.943Z,6.18
2022-09-17T21:01:38.606Z,7.35
2022-09-17T21:04:11.571Z,7.43
2022-09-17T21:06:44.412Z,6.07
2022-09-17T21:09:19.292Z,8.30
2022-09-17T21:11:51.735Z,6.75
2022-09-17T21:14:23.319Z,12.13
2022-09-17T21:16:57.031Z,6.18
2022-09-17T21:19:28.103Z,7.40
2022-09-17T21:22:00.197Z,7.30
2022-09-17T21:24:31.315Z,7.00
2022-09-17T21:27:02.166Z,6.60
2022-09-17T21:29:33.427Z,10.38
2022-09-17T21:32:04.516Z,7.28
2022-09-17T21:34:35.357Z,8.98
2022-09-17T21:37:09.395Z,9.15
2022-09-17T21:39:40.203Z,7.38
2022-09-17T21:42:11.252Z,8.25
2022-09-17T21:44:41.933Z,6.65
2022-09-17T21:47:12.678Z,9.07
2022-09-17T21:49:43.729Z,7.93
2022-09-17T21:52:14.434Z,9.55
2022-09-17T21:54:45.509Z,7.68
2022-09-17T21:57:16.326Z,10.32
2022-09-17T21:59:47.435Z,8.60
2022-09-17T22:04:49.077Z,11.55
2022-09-17T22:07:19.560Z,9.23
2022-09-17T22:09:50.330Z,7.10
2022-09-17T22:12:23.866Z,11.20
2022-09-17T22:14:54.854Z,11.18
2022-09-17T22:17:25.692Z,11.93
2022-09-17T22:19:56.691Z,13.23
2022-09-17T22:22:27.525Z,8.68
2022-09-17T22:24:58.295Z,8.30
2022-09-17T22:27:29.096Z,11.25
2022-09-17T22:29:59.924Z,7.53
2022-09-17T22:32:31.424Z,10.40
2022-09-17T22:37:32.649Z,9.88
2022-09-17T22:40:03.388Z,9.07
2022-09-17T22:42:34.271Z,8.77
2022-09-17T22:45:05.111Z,11.60
2022-09-17T22:47:35.982Z,9.52
2022-09-17T22:50:07.147Z,7.60
2022-09-17T22:52:37.908Z,10.70
2022-09-17T22:55:08.984Z,8.02
2022-09-17T22:57:39.813Z,12.27
2022-09-17T23:00:11.705Z,9.30
2022-09-17T23:02:42.547Z,10.15
2022-09-17T23:05:13.372Z,13.23
2022-09-17T23:07:44.901Z,12.13
2022-09-17T23:10:15.756Z,9.63
2022-09-17T23:12:46.618Z,8.80
2022-09-17T23:15:17.552Z,7.00
2022-09-17T23:17:48.343Z,12.48
2022-09-17T23:20:19.484Z,11.10
2022-09-17T23:22:50.171Z,8.40
2022-09-17T23:25:20.864Z,15.57
2022-09-17T23:27:51.735Z,11.63
2022-09-17T23:30:22.640Z,11.20
2022-09-17T23:32:57.838Z,12.52
2022-09-17T23:35:29.232Z,10.25
2022-09-17T23:38:01.572Z,9.02
2022-09-17T23:40:32.525Z,9.70
2022-09-17T23:43:03.384Z,12.20
2022-09-17T23:45:34.155Z,12.75
2022-09-17T23:48:05.519Z,9.95
2022-09-17T23:50:36.485Z,12.02
2022-09-17T23:53:07.294Z,10.93
2022-09-17T23:55:38.024Z,13.20
2022-09-17T23:58:10.568Z,11.93
